createdAt,value
2018-07-20T00:01:44.445Z,99.90
2018-07-20T00:04:15.024Z,99.90
2018-07-20T00:06:45.659Z,99.90
2018-07-20T00:09:16.386Z,99.90
2018-07-20T00:11:47.184Z,99.90
2018-07-20T00:14:17.831Z,99.90
2018-07-20T00:16:49.352Z,99.90
2018-07-20T00:19:20.255Z,99.90
2018-07-20T00:21:56.115Z,99.90
2018-07-20T00:24:26.879Z,99.90
2018-07-20T00:31:58.264Z,99.90
2018-07-20T00:34:29.632Z,99.90
2018-07-20T00:37:00.324Z,99.90
2018-07-20T00:39:30.864Z,99.90
2018-07-20T00:42:01.357Z,99.90
2018-07-20T00:44:32.095Z,99.90
2018-07-20T00:49:32.664Z,99.90
2018-07-20T00:52:03.615Z,99.90
2018-07-20T00:54:35.179Z,99.90
2018-07-20T00:57:05.917Z,99.90
2018-07-20T00:59:36.446Z,99.90
2018-07-20T01:02:06.974Z,99.90
2018-07-20T01:07:07.718Z,99.90
2018-07-20T01:09:38.316Z,99.90
2018-07-20T01:12:10.117Z,99.90
2018-07-20T01:14:41.036Z,99.90
2018-07-20T01:17:11.632Z,99.90
2018-07-20T01:19:42.212Z,99.90
2018-07-20T01:22:12.926Z,99.90
2018-07-20T01:24:43.790Z,99.90
2018-07-20T01:27:14.375Z,99.90
2018-07-20T01:29:45.254Z,99.90
2018-07-20T01:34:46.747Z,99.90
2018-07-20T01:37:18.134Z,99.90
2018-07-20T01:39:48.760Z,99.90
2018-07-20T01:42:19.387Z,99.90
2018-07-20T01:44:50.022Z,99.90
2018-07-20T01:47:20.665Z,99.90
2018-07-20T01:49:53.208Z,99.90
2018-07-20T01:52:24.260Z,99.90
2018-07-20T01:54:54.842Z,99.90
2018-07-20T01:57:25.323Z,99.90
2018-07-20T01:59:55.863Z,99.90
2018-07-20T02:02:26.729Z,99.90
2018-07-20T02:04:57.358Z,99.90
2018-07-20T02:07:27.957Z,99.90
2018-07-20T02:09:59.784Z,99.90
2018-07-20T02:12:30.549Z,99.90
2018-07-20T02:15:01.164Z,99.90
2018-07-20T02:17:31.662Z,99.90
2018-07-20T02:20:02.110Z,99.90
2018-07-20T02:22:32.664Z,99.90
2018-07-20T02:25:03.238Z,99.90
2018-07-20T02:27:34.691Z,99.90
2018-07-20T02:30:06.875Z,99.90
2018-07-20T02:32:37.461Z,99.90
2018-07-20T02:35:08.691Z,99.90
2018-07-20T02:37:39.189Z,99.90
2018-07-20T02:42:40.512Z,99.90
2018-07-20T02:45:11.245Z,99.90
2018-07-20T02:50:12.945Z,99.90
2018-07-20T02:52:43.581Z,99.90
2018-07-20T02:55:14.131Z,99.90
2018-07-20T02:57:44.741Z,99.90
2018-07-20T03:00:15.438Z,99.90
2018-07-20T03:02:46.001Z,99.90
2018-07-20T03:05:17.268Z,99.90
2018-07-20T03:07:48.984Z,99.90
2018-07-20T03:10:19.861Z,99.90
2018-07-20T03:12:50.534Z,99.90
2018-07-20T03:15:21.078Z,99.90
2018-07-20T03:17:51.760Z,99.90
2018-07-20T03:22:52.591Z,99.90
2018-07-20T03:25:23.204Z,99.90
2018-07-20T03:27:54.772Z,99.90
2018-07-20T03:30:25.516Z,99.90
2018-07-20T03:35:26.312Z,99.90
2018-07-20T03:37:56.996Z,99.90
2018-07-20T03:40:27.740Z,99.90
2018-07-20T03:42:58.483Z,99.90
2018-07-20T03:45:29.528Z,99.90
2018-07-20T03:48:01.138Z,99.90
2018-07-20T03:50:31.859Z,99.90
2018-07-20T03:53:02.610Z,99.90
2018-07-20T03:58:03.450Z,99.90
2018-07-20T04:00:34.002Z,99.90
2018-07-20T04:03:04.662Z,99.90
2018-07-20T04:05:35.542Z,99.90
2018-07-20T04:08:06.863Z,99.90
2018-07-20T04:10:37.632Z,99.90
2018-07-20T04:13:08.318Z,99.90
2018-07-20T04:15:38.854Z,99.90
2018-07-20T04:18:09.492Z,99.90
2018-07-20T04:20:40.130Z,99.90
2018-07-20T04:23:10.910Z,99.90
2018-07-20T04:25:42.057Z,99.90
2018-07-20T04:28:13.001Z,99.90
2018-07-20T04:30:43.673Z,99.90
2018-07-20T04:33:14.627Z,99.90
2018-07-20T04:35:45.134Z,99.90
2018-07-20T04:38:15.827Z,99.90
2018-07-20T04:40:46.518Z,99.90
2018-07-20T04:43:17.609Z,99.90
2018-07-20T04:45:49.120Z,99.90
2018-07-20T04:48:19.651Z,99.90
2018-07-20T04:50:50.322Z,99.90
2018-07-20T04:53:20.859Z,99.90
2018-07-20T04:55:51.570Z,99.90
2018-07-20T04:58:22.035Z,99.90
2018-07-20T05:00:52.643Z,99.90
2018-07-20T05:03:23.915Z,99.90
2018-07-20T05:05:55.244Z,99.90
2018-07-20T05:08:25.718Z,99.90
2018-07-20T05:10:56.390Z,99.90
2018-07-20T05:15:57.166Z,99.90
2018-07-20T05:18:27.817Z,99.90
2018-07-20T05:20:58.553Z,99.90
2018-07-20T05:23:30.504Z,99.90
2018-07-20T05:26:01.388Z,99.90
2018-07-20T05:28:32.608Z,99.90
2018-07-20T05:31:03.387Z,99.90
2018-07-20T05:33:34.062Z,99.90
2018-07-20T05:36:04.875Z,99.90
2018-07-20T05:38:35.897Z,99.90
2018-07-20T05:41:06.527Z,99.90
2018-07-20T05:43:37.470Z,99.90
2018-07-20T05:46:08.319Z,99.90
2018-07-20T05:48:39.064Z,99.90
2018-07-20T05:51:10.373Z,99.90
2018-07-20T05:53:41.869Z,99.90
2018-07-20T05:56:12.669Z,99.90
2018-07-20T05:58:44.160Z,99.90
2018-07-20T06:01:15.141Z,99.90
2018-07-20T06:06:16.542Z,99.90
2018-07-20T06:08:47.951Z,99.90
2018-07-20T06:11:18.938Z,99.90
2018-07-20T06:13:51.536Z,99.90
2018-07-20T06:16:22.305Z,99.90
2018-07-20T06:18:53.047Z,99.90
2018-07-20T06:21:24.267Z,99.90
2018-07-20T06:23:55.438Z,99.90
2018-07-20T06:26:26.133Z,99.90
2018-07-20T06:28:57.363Z,99.90
2018-07-20T06:31:29.001Z,99.90
2018-07-20T06:33:59.748Z,99.90
2018-07-20T06:36:30.521Z,99.90
2018-07-20T06:39:01.425Z,99.90
2018-07-20T06:41:32.191Z,99.90
2018-07-20T06:44:02.833Z,99.90
2018-07-20T06:46:33.758Z,99.90
2018-07-20T06:49:05.838Z,99.90
2018-07-20T06:51:37.448Z,99.90
2018-07-20T06:54:08.136Z,99.90
2018-07-20T06:56:38.806Z,99.90
2018-07-20T06:59:09.435Z,99.90
2018-07-20T07:04:10.827Z,99.90
2018-07-20T07:06:42.429Z,99.90
2018-07-20T07:09:14.121Z,99.90
2018-07-20T07:11:44.914Z,99.90
2018-07-20T07:14:16.357Z,99.90
2018-07-20T07:16:47.270Z,99.90
2018-07-20T07:19:17.982Z,99.90
2018-07-20T07:21:49.636Z,99.90
2018-07-20T07:24:20.691Z,99.90
2018-07-20T07:26:52.287Z,99.90
2018-07-20T07:29:22.977Z,99.90
2018-07-20T07:31:53.704Z,98.90
2018-07-20T07:34:24.574Z,98.10
2018-07-20T07:36:55.406Z,97.60
2018-07-20T07:39:26.249Z,96.30
2018-07-20T07:41:57.812Z,95.80
2018-07-20T07:44:29.639Z,95.40
2018-07-20T07:47:00.552Z,93.00
2018-07-20T07:49:31.768Z,92.80
2018-07-20T07:54:33.103Z,92.00
2018-07-20T07:57:04.149Z,91.30
2018-07-20T07:59:35.174Z,91.80
2018-07-20T08:02:06.765Z,91.50
2018-07-20T08:04:38.839Z,91.30
2018-07-20T08:07:09.773Z,89.40
2018-07-20T08:09:40.795Z,85.90
2018-07-20T08:12:11.449Z,85.00
2018-07-20T08:14:42.593Z,83.70
2018-07-20T08:17:13.926Z,79.80
2018-07-20T08:19:46.314Z,77.90
2018-07-20T08:22:19.418Z,74.20
2018-07-20T08:24:53.173Z,72.20
2018-07-20T08:27:24.265Z,70.70
2018-07-20T08:29:55.596Z,68.60
2018-07-20T08:32:28.364Z,69.60
2018-07-20T08:35:00.125Z,68.90
2018-07-20T08:37:33.095Z,61.40
2018-07-20T08:40:05.485Z,59.60
2018-07-20T08:42:36.576Z,60.30
2018-07-20T08:45:09.786Z,56.20
2018-07-20T08:47:40.926Z,56.50
2018-07-20T08:50:12.556Z,55.10
2018-07-20T08:55:15.310Z,52.90
2018-07-20T09:00:16.853Z,48.70
2018-07-20T09:02:48.058Z,48.60
2018-07-20T09:05:19.386Z,48.90
2018-07-20T09:07:51.783Z,47.70
2018-07-20T09:10:28.046Z,49.40
2018-07-20T09:13:00.144Z,47.00
2018-07-20T09:15:31.203Z,46.90
2018-07-20T09:18:03.715Z,45.80
2018-07-20T09:20:36.157Z,45.60
2018-07-20T09:23:09.467Z,44.40
2018-07-20T09:25:40.888Z,42.50
2018-07-20T09:28:13.262Z,43.30
2018-07-20T09:30:44.095Z,42.00
2018-07-20T09:33:15.803Z,41.70
2018-07-20T09:35:47.047Z,42.20
2018-07-20T09:38:18.311Z,41.80
2018-07-20T09:40:50.719Z,41.60
2018-07-20T09:43:21.649Z,41.30
2018-07-20T09:45:53.143Z,40.90
2018-07-20T09:48:24.459Z,40.90
2018-07-20T09:50:56.081Z,40.00
2018-07-20T09:53:29.641Z,40.70
2018-07-20T09:58:33.642Z,41.50
2018-07-20T10:01:04.914Z,41.10
2018-07-20T10:03:36.109Z,41.00
2018-07-20T10:06:07.616Z,41.10
2018-07-20T10:08:39.709Z,40.70
2018-07-20T10:11:11.023Z,39.80
2018-07-20T10:13:44.500Z,41.10
2018-07-20T10:16:17.332Z,41.50
2018-07-20T10:18:48.777Z,41.50
2018-07-20T10:21:20.016Z,42.00
2018-07-20T10:23:52.268Z,43.20
2018-07-20T10:26:23.643Z,43.70
2018-07-20T10:28:55.574Z,42.40
2018-07-20T10:31:27.488Z,42.70
2018-07-20T10:33:59.796Z,42.40
2018-07-20T10:36:31.071Z,42.60
2018-07-20T10:39:01.775Z,41.70
2018-07-20T10:41:32.495Z,42.30
2018-07-20T10:44:03.110Z,42.00
2018-07-20T10:46:34.545Z,41.50
2018-07-20T10:49:06.238Z,40.70
2018-07-20T10:51:36.914Z,40.70
2018-07-20T10:54:07.778Z,42.70
2018-07-20T10:56:38.546Z,41.10
2018-07-20T10:59:09.789Z,41.10
2018-07-20T11:01:41.200Z,41.00
2018-07-20T11:04:12.429Z,40.90
2018-07-20T11:06:44.855Z,40.90
2018-07-20T11:09:15.730Z,39.40
2018-07-20T11:11:47.001Z,40.50
2018-07-20T11:14:19.571Z,40.10
2018-07-20T11:16:51.433Z,40.00
2018-07-20T11:19:22.717Z,39.80
2018-07-20T11:21:56.421Z,40.10
2018-07-20T11:24:30.063Z,40.50
2018-07-20T11:27:01.364Z,40.30
2018-07-20T11:32:04.636Z,39.70
2018-07-20T11:34:36.929Z,40.00
2018-07-20T11:37:11.091Z,40.70
2018-07-20T11:39:43.185Z,40.20
2018-07-20T11:42:15.070Z,39.70
2018-07-20T11:44:47.455Z,39.80
2018-07-20T11:47:18.454Z,39.50
2018-07-20T11:49:50.239Z,40.70
2018-07-20T11:52:25.364Z,40.60
2018-07-20T11:54:57.597Z,39.60
2018-07-20T11:57:28.590Z,39.60
2018-07-20T12:00:00.616Z,39.80
2018-07-20T12:02:31.238Z,39.40
2018-07-20T12:05:01.978Z,39.30
2018-07-20T12:07:33.065Z,39.80
2018-07-20T12:10:05.232Z,40.10
2018-07-20T12:12:36.292Z,38.80
2018-07-20T12:15:07.712Z,39.80
2018-07-20T12:17:39.141Z,39.00
2018-07-20T12:20:11.341Z,38.50
2018-07-20T12:22:42.504Z,38.50
2018-07-20T12:25:14.480Z,38.60
2018-07-20T12:27:47.748Z,39.50
2018-07-20T12:30:20.503Z,39.70
2018-07-20T12:35:28.387Z,42.00
2018-07-20T12:37:59.496Z,40.90
2018-07-20T12:40:32.141Z,40.30
2018-07-20T12:43:02.932Z,39.40
2018-07-20T12:45:33.855Z,38.90
2018-07-20T12:50:38.038Z,37.90
2018-07-20T12:53:13.824Z,37.60
2018-07-20T12:55:46.276Z,37.70
2018-07-20T12:58:17.664Z,37.60
2018-07-20T13:00:48.589Z,36.90
2018-07-20T13:03:19.704Z,37.80
2018-07-20T13:05:50.705Z,37.60
2018-07-20T13:08:22.522Z,37.50
2018-07-20T13:10:53.805Z,38.40
2018-07-20T13:13:26.040Z,39.10
2018-07-20T13:15:57.746Z,38.70
2018-07-20T13:18:28.586Z,39.20
2018-07-20T13:20:59.637Z,40.70
2018-07-20T13:23:30.770Z,41.90
2018-07-20T13:26:01.610Z,40.30
2018-07-20T13:28:32.957Z,39.50
2018-07-20T13:31:04.159Z,39.60
2018-07-20T13:33:37.857Z,40.50
2018-07-20T13:36:08.861Z,41.90
2018-07-20T13:38:39.661Z,42.60
2018-07-20T13:41:11.623Z,42.50
2018-07-20T13:43:43.379Z,43.20
2018-07-20T13:46:14.467Z,43.40
2018-07-20T13:48:45.867Z,42.60
2018-07-20T13:51:18.541Z,43.80
2018-07-20T13:53:49.473Z,43.90
2018-07-20T13:56:21.431Z,42.70
2018-07-20T13:58:53.370Z,44.80
2018-07-20T14:01:26.772Z,44.90
2018-07-20T14:03:58.414Z,44.60
2018-07-20T14:06:31.284Z,42.90
2018-07-20T14:09:06.615Z,41.70
2018-07-20T14:11:37.763Z,43.90
2018-07-20T14:14:09.009Z,45.60
2018-07-20T14:16:40.747Z,44.00
2018-07-20T14:19:11.803Z,42.70
2018-07-20T14:21:42.766Z,42.60
2018-07-20T14:24:15.032Z,43.70
2018-07-20T14:26:45.817Z,43.10
2018-07-20T14:29:17.261Z,42.80
2018-07-20T14:31:52.291Z,44.40
2018-07-20T14:34:23.537Z,44.30
2018-07-20T14:36:54.439Z,43.60
2018-07-20T14:39:26.289Z,43.30
2018-07-20T14:41:58.026Z,43.70
2018-07-20T14:44:29.471Z,43.50
2018-07-20T14:47:01.176Z,45.20
2018-07-20T14:49:31.880Z,46.20
2018-07-20T14:52:02.806Z,43.70
2018-07-20T14:54:33.868Z,45.20
2018-07-20T14:57:05.839Z,44.30
2018-07-20T14:59:37.701Z,44.80
2018-07-20T15:02:08.491Z,45.10
2018-07-20T15:04:39.843Z,45.90
2018-07-20T15:07:11.114Z,45.40
2018-07-20T15:09:42.057Z,45.50
2018-07-20T15:12:12.995Z,45.10
2018-07-20T15:14:44.545Z,45.30
2018-07-20T15:17:17.816Z,46.90
2018-07-20T15:19:48.647Z,46.60
2018-07-20T15:22:20.292Z,45.50
2018-07-20T15:24:51.085Z,45.90
2018-07-20T15:27:21.780Z,48.20
2018-07-20T15:29:52.522Z,49.10
2018-07-20T15:32:23.947Z,49.70
2018-07-20T15:34:55.634Z,51.20
2018-07-20T15:37:27.584Z,52.30
2018-07-20T15:39:58.724Z,52.00
2018-07-20T15:42:29.719Z,51.60
2018-07-20T15:45:01.011Z,52.60
2018-07-20T15:47:32.567Z,52.60
2018-07-20T15:50:04.545Z,52.90
2018-07-20T15:55:09.659Z,53.10
2018-07-20T15:57:42.753Z,52.20
2018-07-20T16:00:14.678Z,52.60
2018-07-20T16:02:47.691Z,53.10
2018-07-20T16:05:24.457Z,53.80
2018-07-20T16:07:59.445Z,53.70
2018-07-20T16:10:33.249Z,54.90
2018-07-20T16:13:05.866Z,54.60
2018-07-20T16:15:40.884Z,53.60
2018-07-20T16:18:14.155Z,54.00
2018-07-20T16:20:46.605Z,53.90
2018-07-20T16:23:18.707Z,53.20
2018-07-20T16:25:50.319Z,54.50
2018-07-20T16:28:22.875Z,52.80
2018-07-20T16:30:56.883Z,52.90
2018-07-20T16:33:28.385Z,52.80
2018-07-20T16:36:00.647Z,52.10
2018-07-20T16:38:32.324Z,52.90
2018-07-20T16:41:03.913Z,52.70
2018-07-20T16:43:35.583Z,52.00
2018-07-20T16:46:07.768Z,53.20
2018-07-20T16:48:40.385Z,52.30
2018-07-20T16:51:13.602Z,52.70
2018-07-20T16:53:45.035Z,52.80
2018-07-20T16:56:15.785Z,52.30
2018-07-20T16:58:48.322Z,53.00
2018-07-20T17:01:20.180Z,53.40
2018-07-20T17:03:51.965Z,53.40
2018-07-20T17:06:23.911Z,52.70
2018-07-20T17:08:55.910Z,52.30
2018-07-20T17:11:26.687Z,52.70
2018-07-20T17:13:57.715Z,51.80
2018-07-20T17:16:29.508Z,52.40
2018-07-20T17:19:01.063Z,52.50
2018-07-20T17:21:33.741Z,52.40
2018-07-20T17:24:05.065Z,52.40
2018-07-20T17:26:37.086Z,51.60
2018-07-20T17:29:09.101Z,52.30
2018-07-20T17:31:40.213Z,52.30
2018-07-20T17:39:14.381Z,52.10
2018-07-20T17:41:46.959Z,53.00
2018-07-20T17:44:17.906Z,52.90
2018-07-20T17:46:48.999Z,52.90
2018-07-20T17:49:21.428Z,53.50
2018-07-20T17:51:53.451Z,53.90
2018-07-20T17:54:27.040Z,53.80
2018-07-20T17:56:58.165Z,53.50
2018-07-20T17:59:29.449Z,53.80
2018-07-20T18:02:01.299Z,53.70
2018-07-20T18:04:33.811Z,54.30
2018-07-20T18:07:07.388Z,54.30
2018-07-20T18:09:40.290Z,55.40
2018-07-20T18:12:19.106Z,54.80
2018-07-20T18:14:53.079Z,55.00
2018-07-20T18:19:55.942Z,54.50
2018-07-20T18:27:31.267Z,59.60
2018-07-20T18:30:01.876Z,60.70
2018-07-20T18:32:33.420Z,60.60
2018-07-20T18:35:05.022Z,60.70
2018-07-20T18:37:36.649Z,60.90
2018-07-20T18:40:09.959Z,61.20
2018-07-20T18:42:41.862Z,62.70
2018-07-20T18:45:12.646Z,63.30
2018-07-20T18:47:44.697Z,64.00
2018-07-20T18:50:17.352Z,64.20
2018-07-20T18:52:48.203Z,64.30
2018-07-20T18:55:20.217Z,64.90
2018-07-20T18:57:52.556Z,65.30
2018-07-20T19:00:23.317Z,65.60
2018-07-20T19:02:54.934Z,66.10
2018-07-20T19:05:26.463Z,66.90
2018-07-20T19:10:27.754Z,67.60
2018-07-20T19:12:59.763Z,68.60
2018-07-20T19:15:31.537Z,69.70
2018-07-20T19:18:02.555Z,71.00
2018-07-20T19:20:34.524Z,72.50
2018-07-20T19:23:05.715Z,72.30
2018-07-20T19:25:38.145Z,72.70
2018-07-20T19:28:11.465Z,73.40
2018-07-20T19:30:43.381Z,74.30
2018-07-20T19:33:15.446Z,74.50
2018-07-20T19:35:47.312Z,75.20
2018-07-20T19:38:18.661Z,75.80
2018-07-20T19:40:49.534Z,76.60
2018-07-20T19:43:21.529Z,77.30
2018-07-20T19:45:54.167Z,77.60
2018-07-20T19:48:25.512Z,78.40
2018-07-20T19:50:58.840Z,78.50
2018-07-20T19:53:30.047Z,78.80
2018-07-20T19:56:01.934Z,79.50
2018-07-20T19:58:33.445Z,80.00
2018-07-20T20:01:06.109Z,80.60
2018-07-20T20:03:39.009Z,81.80
2018-07-20T20:06:10.605Z,82.20
2018-07-20T20:08:42.096Z,83.00
2018-07-20T20:11:15.864Z,84.20
2018-07-20T20:13:47.085Z,85.30
2018-07-20T20:16:20.155Z,86.60
2018-07-20T20:18:52.814Z,87.80
2018-07-20T20:21:27.238Z,89.30
2018-07-20T20:23:58.874Z,90.20
2018-07-20T20:26:30.360Z,90.70
2018-07-20T20:29:01.968Z,90.90
2018-07-20T20:31:36.397Z,91.40
2018-07-20T20:34:09.141Z,92.00
2018-07-20T20:36:40.376Z,92.10
2018-07-20T20:39:13.501Z,92.60
2018-07-20T20:41:45.152Z,93.10
2018-07-20T20:44:16.148Z,93.90
2018-07-20T20:46:48.563Z,94.60
2018-07-20T20:49:20.879Z,95.30
2018-07-20T20:51:52.155Z,95.90
2018-07-20T20:54:23.396Z,96.50
2018-07-20T20:56:54.566Z,96.70
2018-07-20T20:59:25.581Z,96.90
2018-07-20T21:01:56.909Z,97.00
2018-07-20T21:04:28.573Z,97.40
2018-07-20T21:06:59.437Z,97.90
2018-07-20T21:09:30.181Z,98.40
2018-07-20T21:12:01.079Z,98.60
2018-07-20T21:14:31.737Z,98.70
2018-07-20T21:17:03.396Z,99.10
2018-07-20T21:19:34.452Z,99.50
2018-07-20T21:22:06.569Z,99.90
2018-07-20T21:24:37.787Z,99.90
2018-07-20T21:27:08.552Z,99.90
2018-07-20T21:29:40.656Z,99.90
2018-07-20T21:32:17.805Z,99.90
2018-07-20T21:34:51.655Z,99.90
2018-07-20T21:37:24.001Z,99.90
2018-07-20T21:39:55.315Z,99.90
2018-07-20T21:42:26.917Z,99.90
2018-07-20T21:44:57.901Z,99.90
2018-07-20T21:47:29.377Z,99.90
2018-07-20T21:50:00.532Z,99.90
2018-07-20T21:52:31.745Z,99.90
2018-07-20T21:55:03.535Z,99.90
2018-07-20T21:57:34.748Z,99.90
2018-07-20T22:00:12.882Z,99.90
2018-07-20T22:02:44.487Z,99.90
2018-07-20T22:05:16.194Z,99.90
2018-07-20T22:07:59.222Z,99.90
2018-07-20T22:10:32.161Z,99.90
2018-07-20T22:13:09.497Z,99.90
2018-07-20T22:15:40.889Z,99.90
2018-07-20T22:20:42.631Z,99.90
2018-07-20T22:23:13.981Z,99.90
2018-07-20T22:28:16.854Z,99.90
2018-07-20T22:30:47.762Z,99.90
2018-07-20T22:33:19.946Z,99.90
2018-07-20T22:35:51.829Z,99.90
2018-07-20T22:38:23.604Z,99.90
2018-07-20T22:40:54.723Z,99.90
2018-07-20T22:43:27.769Z,99.90
2018-07-20T22:45:59.420Z,99.90
2018-07-20T22:48:31.510Z,99.90
2018-07-20T22:51:05.123Z,99.90
2018-07-20T22:53:37.991Z,99.90
2018-07-20T22:56:09.543Z,99.90
2018-07-20T22:58:46.243Z,99.90
2018-07-20T23:01:20.768Z,99.90
2018-07-20T23:03:55.968Z,99.90
2018-07-20T23:06:27.696Z,99.90
2018-07-20T23:08:59.043Z,99.90
2018-07-20T23:11:33.120Z,99.90
2018-07-20T23:14:06.146Z,99.90
2018-07-20T23:16:38.608Z,99.90
2018-07-20T23:19:11.209Z,99.90
2018-07-20T23:21:42.332Z,99.90
2018-07-20T23:24:13.859Z,99.90
2018-07-20T23:26:46.492Z,99.90
2018-07-20T23:29:17.905Z,99.90
2018-07-20T23:31:48.799Z,99.90
2018-07-20T23:34:19.592Z,99.90
2018-07-20T23:36:50.200Z,99.90
2018-07-20T23:39:20.877Z,99.90
2018-07-20T23:41:53.120Z,99.90
2018-07-20T23:44:24.579Z,99.90
2018-07-20T23:46:55.608Z,99.90
2018-07-20T23:49:26.274Z,99.90
2018-07-20T23:51:57.080Z,99.90
2018-07-20T23:54:28.309Z,99.90
2018-07-20T23:56:58.955Z,99.90
2018-07-20T23:59:29.829Z,99.90
